Terminal Aerodrome Forecast
Issued by NWS

Home | Current Version | Previous Version | Graphics & Text | Print | Product List | Glossary On
Versions: 1 2 3 4 5 6 7 8 9 10 11 12 13
000
FTUS43 KGRB 032300
TAFCWA
TAF
KCWA 032322Z 0400/0424 27011G19KT P6SM BKN022
     FM040200 29010G18KT P6SM SCT022 SCT035
     FM041600 28015G25KT P6SM SCT025
      AMD LTD TO CLD VIS AND WIND 0403/0411=

USA.gov is the U.S. government's official web portal to all federal, state and local government web resources and services.